X  Sluiten METAR luchtvaart weer gegevens      EBBR Brussels Airport
Temperatuur
0°C Temperatuur
-1°C Dauwpunt
93% Vochtigheid



Wind
5 KM/U
3 MPH
1 M/S
3 KTS



190°
Zuid
Huidig weer

Grotendeels bewolkt Grotendeels bewolkt
Luchtdruk 1028.92 (hPa) - 30.38 (inHg)
Zicht 6.2 (mijl) - 10 (km)
Vliegveld
Vliegveld code EBBR

Locatie : Brussels Airport
Afstand: 14 (km)

Metar:
EBBR 160120Z 19003KT 9999 BKN046 00/M01 Q1029 NOSIG

Tijd: 01-16-2021 02:20 CET